Time;durP1;ratioP1;P1;durP2;ratioP2;P2;SDS_P1;SDS_P2;PMS_P1;PMS_P2;Temp;Humidity;BMP_temperature;BMP_pressure;BME280_temperature;BME280_humidity;BME280_pressure;Samples;Min_cycle;Max_cycle;Signal;HPM_P1;HPM_P2
2023/11/29 02:04:33;;;;;;;5.32;3.72;;;-0.90;99.90;;;;;;5045144;28;20189;-72
2023/11/29 02:07:03;;;;;;;1.95;1.83;;;-0.90;99.90;;;;;;5042072;28;20215;-72
2023/11/29 02:09:50;;;;;;;4.90;3.45;;;-1.00;99.90;;;;;;5044221;28;20403;-72
2023/11/29 02:12:17;;;;;;;4.20;3.70;;;-1.00;99.90;;;;;;5041692;28;20259;-72
2023/11/29 02:14:45;;;;;;;5.63;3.70;;;-1.10;99.90;;;;;;5044884;28;20247;-72
2023/11/29 02:17:12;;;;;;;6.05;4.38;;;-1.00;99.90;;;;;;5042631;28;20254;-72
2023/11/29 02:19:40;;;;;;;4.82;2.10;;;-1.10;99.90;;;;;;5044935;28;20201;-72
2023/11/29 02:22:10;;;;;;;4.07;3.50;;;-1.10;99.90;;;;;;5042609;28;20612;-72
2023/11/29 02:24:42;;;;;;;2.22;2.13;;;-1.10;99.90;;;;;;5041771;28;20203;-72
2023/11/29 02:27:11;;;;;;;5.97;2.53;;;-1.10;99.90;;;;;;5044235;28;20665;-72
2023/11/29 02:29:38;;;;;;;2.78;2.58;;;-1.10;99.90;;;;;;5041446;28;20196;-72
2023/11/29 02:32:06;;;;;;;2.45;2.25;;;-1.20;99.90;;;;;;5042001;28;20222;-72
2023/11/29 02:34:35;;;;;;;2.92;2.45;;;-1.10;99.90;;;;;;5043583;28;20196;-72
2023/11/29 02:37:02;;;;;;;5.97;4.65;;;-1.20;99.90;;;;;;5045090;28;20224;-72
2023/11/29 02:39:29;;;;;;;3.67;3.33;;;-1.20;99.90;;;;;;5042630;28;20572;-72
2023/11/29 02:41:56;;;;;;;3.03;2.72;;;-1.20;99.90;;;;;;5045164;28;20285;-72
2023/11/29 02:44:24;;;;;;;3.10;2.08;;;-1.20;99.90;;;;;;5037631;28;20197;-72
2023/11/29 02:46:51;;;;;;;4.22;3.03;;;-1.30;99.90;;;;;;5043727;28;20200;-72
2023/11/29 02:49:19;;;;;;;5.93;2.13;;;-1.30;99.90;;;;;;5044043;28;20215;-72
2023/11/29 02:51:47;;;;;;;8.77;2.75;;;-1.40;99.90;;;;;;5045177;28;20200;-72
2023/11/29 02:54:14;;;;;;;4.10;3.22;;;-1.30;99.90;;;;;;5043382;28;20193;-72
2023/11/29 02:56:42;;;;;;;2.63;2.42;;;-1.40;99.90;;;;;;5043787;28;20201;-72
2023/11/29 02:59:09;;;;;;;4.32;2.50;;;-1.30;99.90;;;;;;5042767;28;20211;-72
2023/11/29 03:01:38;;;;;;;6.10;4.07;;;-1.30;99.90;;;;;;5044466;28;20279;-72
2023/11/29 03:04:06;;;;;;;4.00;3.45;;;-1.40;99.90;;;;;;5045267;28;20205;-72
2023/11/29 03:06:34;;;;;;;3.55;3.25;;;-1.30;99.90;;;;;;5041695;28;20197;-72
2023/11/29 03:09:01;;;;;;;4.18;3.83;;;-1.30;99.90;;;;;;5036762;28;20661;-72
2023/11/29 03:11:29;;;;;;;4.45;2.50;;;-1.40;99.90;;;;;;5041971;28;20287;-72
2023/11/29 03:13:58;;;;;;;2.78;2.25;;;-1.30;99.90;;;;;;5044292;28;20305;-72
2023/11/29 03:16:25;;;;;;;4.13;3.30;;;-1.40;99.90;;;;;;5040672;28;20247;-72
2023/11/29 03:18:54;;;;;;;5.63;2.75;;;-1.50;99.90;;;;;;5040719;28;20238;-72
2023/11/29 03:21:21;;;;;;;3.55;2.83;;;-1.40;99.90;;;;;;5045323;28;20200;-72
2023/11/29 03:23:48;;;;;;;8.52;4.40;;;-1.40;99.90;;;;;;5041070;28;20201;-72
2023/11/29 03:26:15;;;;;;;2.65;2.35;;;-1.50;99.90;;;;;;5040716;28;20193;-72
2023/11/29 03:28:43;;;;;;;3.65;2.45;;;-1.60;99.90;;;;;;5036896;28;20295;-72
2023/11/29 03:31:10;;;;;;;5.65;2.70;;;-1.60;99.90;;;;;;5044751;28;20208;-72
2023/11/29 03:33:37;;;;;;;4.40;3.08;;;-1.40;99.90;;;;;;5044746;28;20262;-72
2023/11/29 03:36:07;;;;;;;5.97;3.60;;;-1.40;99.90;;;;;;5044133;28;20204;-72
2023/11/29 03:38:34;;;;;;;5.80;3.65;;;-1.40;99.90;;;;;;5042816;28;20584;-72
2023/11/29 03:41:01;;;;;;;2.97;2.78;;;-1.40;99.90;;;;;;5047845;28;20266;-72
2023/11/29 03:43:27;;;;;;;5.32;2.88;;;-1.40;99.90;;;;;;5045760;28;20200;-72
2023/11/29 03:45:54;;;;;;;6.32;4.18;;;-1.40;99.90;;;;;;5045146;28;20193;-72
2023/11/29 03:48:21;;;;;;;2.60;2.20;;;-1.30;99.90;;;;;;5050595;28;20211;-72
2023/11/29 03:50:48;;;;;;;3.53;3.15;;;-1.30;99.90;;;;;;5044339;28;20266;-72
2023/11/29 04:13:28;;;;;;;3.53;2.33;;;-1.20;99.90;;;;;;5044891;28;20198;-72
2023/11/29 04:15:55;;;;;;;6.13;3.33;;;-1.20;99.90;;;;;;5046494;28;20212;-72
2023/11/29 04:18:22;;;;;;;2.30;2.00;;;-1.20;99.90;;;;;;5040493;28;20705;-72
2023/11/29 04:20:48;;;;;;;8.10;3.63;;;-1.20;99.90;;;;;;5046434;28;20209;-72
2023/11/29 04:23:15;;;;;;;2.97;2.60;;;-1.30;99.90;;;;;;5040351;28;20200;-72
2023/11/29 04:25:42;;;;;;;4.63;2.55;;;-1.30;99.90;;;;;;5048046;28;20203;-72
2023/11/29 04:28:09;;;;;;;3.13;2.42;;;-1.30;99.90;;;;;;5045494;28;20208;-72
2023/11/29 04:30:37;;;;;;;3.58;3.28;;;-1.20;99.90;;;;;;5046557;28;20209;-72
2023/11/29 04:33:04;;;;;;;2.22;2.13;;;-1.20;99.90;;;;;;5046529;28;20203;-72
2023/11/29 04:35:31;;;;;;;4.93;4.07;;;-1.20;99.90;;;;;;5044267;28;20212;-72
2023/11/29 04:37:58;;;;;;;4.03;3.70;;;-1.00;99.90;;;;;;5045298;28;20259;-72
2023/11/29 04:40:25;;;;;;;6.35;2.97;;;-1.00;99.90;;;;;;5046841;28;20208;-72
2023/11/29 04:42:52;;;;;;;6.65;2.70;;;-1.00;99.90;;;;;;5047704;28;20207;-72
2023/11/29 04:45:18;;;;;;;3.55;2.17;;;-1.00;99.90;;;;;;5045082;28;20219;-72
2023/11/29 04:47:47;;;;;;;6.80;3.50;;;-1.00;99.90;;;;;;5044794;28;20318;-72
2023/11/29 04:50:14;;;;;;;8.50;6.25;;;-0.90;99.90;;;;;;5040456;28;20200;-72
2023/11/29 04:52:40;;;;;;;6.03;4.53;;;-0.90;99.90;;;;;;5047142;28;20195;-72
2023/11/29 04:55:08;;;;;;;4.90;3.00;;;-0.70;99.90;;;;;;5047488;28;20739;-72
2023/11/29 04:57:34;;;;;;;8.70;4.55;;;-0.70;99.90;;;;;;5046414;28;20200;-72
2023/11/29 05:00:04;;;;;;;4.47;2.90;;;-0.60;99.90;;;;;;5045000;28;20225;-73
2023/11/29 05:02:32;;;;;;;3.25;2.70;;;-0.70;99.90;;;;;;5046605;28;20207;-73
2023/11/29 05:05:00;;;;;;;3.92;3.50;;;-0.70;99.90;;;;;;5040586;28;20651;-73
2023/11/29 05:07:27;;;;;;;3.85;2.95;;;-0.60;99.90;;;;;;5037900;28;20681;-72
2023/11/29 05:09:53;;;;;;;7.10;5.03;;;-0.50;99.90;;;;;;5039145;28;20211;-75
2023/11/29 05:12:20;;;;;;;5.10;2.63;;;-0.70;99.90;;;;;;5044888;28;20203;-72
2023/11/29 05:14:47;;;;;;;4.93;2.67;;;-0.70;99.90;;;;;;5038220;28;20573;-72
2023/11/29 05:17:14;;;;;;;5.45;3.22;;;-0.60;99.90;;;;;;5045929;28;20204;-72
2023/11/29 05:19:41;;;;;;;5.38;4.03;;;-0.60;99.90;;;;;;5040012;28;20223;-71
2023/11/29 05:22:09;;;;;;;3.00;2.72;;;-0.70;99.90;;;;;;5046332;28;20207;-73
2023/11/29 05:24:36;;;;;;;5.40;3.28;;;-0.70;99.90;;;;;;5044784;28;20566;-73
2023/11/29 05:27:03;;;;;;;5.95;4.22;;;-0.70;99.90;;;;;;5043923;28;20196;-73
2023/11/29 05:29:31;;;;;;;4.57;2.85;;;-0.70;99.90;;;;;;5043951;28;20188;-73
2023/11/29 05:31:58;;;;;;;3.15;2.83;;;-0.70;99.90;;;;;;5044180;28;20607;-72
2023/11/29 05:34:24;;;;;;;6.22;4.57;;;-0.80;99.90;;;;;;5046436;28;20202;-72
2023/11/29 05:36:51;;;;;;;3.95;3.65;;;-0.70;99.90;;;;;;5043794;28;20809;-72
2023/11/29 05:39:19;;;;;;;8.18;3.63;;;-0.80;99.90;;;;;;5043504;28;20216;-73
2023/11/29 05:41:47;;;;;;;7.65;2.53;;;-0.60;99.90;;;;;;5038370;28;20193;-73
2023/11/29 05:44:13;;;;;;;2.33;2.10;;;-0.50;99.90;;;;;;5041092;28;20203;-73
2023/11/29 05:46:40;;;;;;;2.30;2.10;;;-0.50;99.90;;;;;;5046231;28;20200;-73
2023/11/29 05:49:09;;;;;;;3.85;3.33;;;-0.50;99.90;;;;;;5048161;28;20630;-73
2023/11/29 05:51:36;;;;;;;4.45;3.28;;;-0.40;99.90;;;;;;5046406;28;20561;-73
2023/11/29 05:54:03;;;;;;;3.95;3.03;;;-0.60;99.90;;;;;;5049294;28;20290;-72
2023/11/29 05:56:31;;;;;;;4.38;3.40;;;-0.50;99.90;;;;;;5044178;28;20211;-72
2023/11/29 05:58:57;;;;;;;4.03;2.25;;;-0.30;99.90;;;;;;5044114;28;20259;-72
2023/11/29 06:01:24;;;;;;;6.80;3.83;;;-0.20;99.90;;;;;;5035727;28;20275;-72
2023/11/29 06:03:51;;;;;;;4.78;3.28;;;-0.30;99.90;;;;;;5045819;28;20619;-72
2023/11/29 06:06:18;;;;;;;5.55;3.05;;;-0.30;99.90;;;;;;5046492;28;20280;-72
2023/11/29 06:08:45;;;;;;;3.63;3.20;;;-0.20;99.90;;;;;;5045156;28;20206;-72
2023/11/29 06:11:11;;;;;;;10.43;5.20;;;-0.30;99.90;;;;;;5046530;28;20200;-72
2023/11/29 06:13:40;;;;;;;5.40;4.57;;;-0.30;99.90;;;;;;5046386;28;20586;-73
2023/11/29 06:16:08;;;;;;;4.55;4.13;;;-0.20;99.90;;;;;;5045603;28;20258;-72
2023/11/29 06:18:35;;;;;;;2.85;2.60;;;-0.10;99.90;;;;;;5045616;28;20227;-72
2023/11/29 06:21:04;;;;;;;6.78;3.70;;;-0.30;99.90;;;;;;5046117;28;20196;-72
2023/11/29 06:23:31;;;;;;;4.40;3.65;;;-0.30;99.90;;;;;;5045795;28;20192;-72
2023/11/29 06:25:58;;;;;;;5.35;3.30;;;-0.30;99.90;;;;;;5045876;28;20204;-72
2023/11/29 06:28:24;;;;;;;5.45;4.38;;;-0.10;99.90;;;;;;5045662;28;20578;-72
2023/11/29 06:30:54;;;;;;;3.90;2.85;;;-0.20;99.90;;;;;;5045746;28;20204;-72
2023/11/29 06:33:21;;;;;;;4.60;4.28;;;-0.10;99.90;;;;;;5045421;28;20205;-72
2023/11/29 06:35:47;;;;;;;3.85;2.88;;;-0.20;99.90;;;;;;5045294;28;20224;-72
2023/11/29 06:38:14;;;;;;;3.42;2.83;;;-0.40;99.90;;;;;;5046075;28;20231;-72
2023/11/29 06:40:42;;;;;;;4.60;2.65;;;-0.50;99.90;;;;;;5045793;28;20204;-72
2023/11/29 06:43:09;;;;;;;4.25;3.33;;;-0.50;99.90;;;;;;5046028;28;20325;-72
2023/11/29 06:45:35;;;;;;;3.22;2.35;;;-0.40;99.90;;;;;;5045693;28;20204;-72
2023/11/29 06:48:04;;;;;;;5.90;4.28;;;-0.30;99.90;;;;;;5048050;28;20208;-71
2023/11/29 06:50:31;;;;;;;5.85;3.42;;;-0.40;99.90;;;;;;5044709;28;20674;-72
2023/11/29 06:52:59;;;;;;;4.15;2.15;;;-0.50;99.90;;;;;;5045903;28;20234;-70
2023/11/29 06:55:26;;;;;;;4.05;3.40;;;-0.30;99.90;;;;;;5042228;28;20192;-71
2023/11/29 06:57:52;;;;;;;8.02;4.55;;;-0.30;99.90;;;;;;5034378;28;20204;-71
2023/11/29 07:00:21;;;;;;;3.72;3.22;;;-0.40;99.90;;;;;;5033425;28;20227;-71
2023/11/29 07:02:49;;;;;;;2.78;2.38;;;-0.30;99.90;;;;;;5036593;28;20207;-74
2023/11/29 07:05:18;;;;;;;5.55;4.82;;;-0.30;99.90;;;;;;5035082;28;20205;-76
2023/11/29 07:07:46;;;;;;;3.83;3.53;;;-0.10;99.90;;;;;;5041318;28;20206;-76
2023/11/29 07:10:13;;;;;;;3.72;2.97;;;-0.10;99.90;;;;;;5044739;28;20201;-77
2023/11/29 07:12:40;;;;;;;7.50;4.97;;;-0.10;99.90;;;;;;5046811;28;20215;-77
2023/11/29 07:15:08;;;;;;;3.63;2.38;;;0.00;99.90;;;;;;5048304;28;20212;-77
2023/11/29 07:17:36;;;;;;;7.35;3.95;;;0.10;99.90;;;;;;5047859;28;20209;-75
2023/11/29 07:20:04;;;;;;;5.85;3.63;;;0.00;99.90;;;;;;5048643;28;20282;-78
2023/11/29 07:22:34;;;;;;;4.82;3.13;;;-0.10;99.90;;;;;;5048866;28;20201;-75
2023/11/29 07:25:02;;;;;;;6.30;3.88;;;0.00;99.90;;;;;;5047985;28;20235;-77
2023/11/29 07:27:28;;;;;;;5.50;4.30;;;-0.10;99.90;;;;;;5045239;28;20299;-77
2023/11/29 07:29:55;;;;;;;5.57;3.88;;;-0.10;99.90;;;;;;5047983;28;20212;-77
2023/11/29 07:32:22;;;;;;;4.20;3.80;;;0.00;99.90;;;;;;5049233;28;20208;-75
2023/11/29 07:34:49;;;;;;;5.22;3.97;;;0.00;99.90;;;;;;5048776;28;20203;-75
2023/11/29 07:37:19;;;;;;;4.78;3.63;;;0.00;99.90;;;;;;5046967;28;20651;-75
2023/11/29 07:39:48;;;;;;;7.60;4.88;;;0.10;99.90;;;;;;5048498;28;20619;-74
2023/11/29 07:42:15;;;;;;;4.50;2.88;;;0.20;99.90;;;;;;5046504;28;20204;-75
2023/11/29 07:44:43;;;;;;;3.95;3.60;;;0.10;99.90;;;;;;5047949;28;20566;-74
2023/11/29 07:47:09;;;;;;;4.07;3.08;;;0.20;99.90;;;;;;5049206;28;20239;-75
2023/11/29 07:49:36;;;;;;;5.70;2.80;;;0.10;99.90;;;;;;5048812;28;20208;-74
2023/11/29 07:52:03;;;;;;;3.88;3.28;;;0.10;99.90;;;;;;5048992;28;20211;-74
2023/11/29 07:54:31;;;;;;;7.15;2.90;;;0.20;99.90;;;;;;5052291;28;20200;-72
2023/11/29 07:56:59;;;;;;;4.32;3.67;;;0.30;99.90;;;;;;5048116;28;20200;-73
2023/11/29 07:59:27;;;;;;;4.45;3.28;;;0.30;99.90;;;;;;5048225;28;20234;-73
2023/11/29 08:01:53;;;;;;;3.83;3.15;;;0.40;99.90;;;;;;5046290;28;20203;-73
2023/11/29 08:04:20;;;;;;;3.80;3.13;;;0.30;99.90;;;;;;5048644;28;20197;-73
2023/11/29 08:06:47;;;;;;;4.50;3.50;;;0.30;99.90;;;;;;5048396;28;20200;-73
2023/11/29 08:09:14;;;;;;;2.30;2.10;;;0.30;99.90;;;;;;5041769;28;20208;-73
2023/11/29 08:11:44;;;;;;;3.25;2.95;;;0.40;99.90;;;;;;5047827;28;20567;-72
2023/11/29 08:14:12;;;;;;;4.00;3.25;;;0.50;99.90;;;;;;5048584;28;20208;-72
2023/11/29 08:16:39;;;;;;;3.88;3.58;;;0.50;99.90;;;;;;5048433;28;20200;-73
2023/11/29 08:19:06;;;;;;;7.22;2.90;;;0.40;99.90;;;;;;5048002;28;20234;-73
2023/11/29 08:21:33;;;;;;;5.38;2.28;;;0.40;99.90;;;;;;5048835;28;20196;-73
2023/11/29 08:24:00;;;;;;;4.90;3.35;;;0.60;99.90;;;;;;5046934;28;20200;-73
2023/11/29 08:26:27;;;;;;;8.77;3.17;;;0.60;99.90;;;;;;5047896;28;20209;-73
2023/11/29 08:28:53;;;;;;;4.53;3.15;;;0.50;99.90;;;;;;5047347;28;20200;-73
2023/11/29 08:31:21;;;;;;;6.53;3.38;;;0.50;99.90;;;;;;5048580;28;20192;-73
2023/11/29 08:33:48;;;;;;;3.63;2.72;;;0.70;99.90;;;;;;5047858;28;20212;-73
2023/11/29 08:36:15;;;;;;;4.10;3.20;;;0.70;99.90;;;;;;5045083;28;20207;-73
2023/11/29 08:38:42;;;;;;;2.58;2.38;;;0.80;99.90;;;;;;5045283;28;20301;-73
2023/11/29 08:41:09;;;;;;;3.40;3.10;;;0.70;99.90;;;;;;5047062;28;20219;-73
2023/11/29 08:43:36;;;;;;;5.00;3.35;;;0.80;99.90;;;;;;5047937;28;20200;-73
2023/11/29 08:46:03;;;;;;;3.45;2.17;;;0.70;99.90;;;;;;5048037;28;20206;-73
2023/11/29 08:48:32;;;;;;;5.78;2.72;;;0.80;99.90;;;;;;5049234;28;20561;-73
2023/11/29 08:50:59;;;;;;;2.20;2.00;;;0.90;99.90;;;;;;5047601;28;20215;-73
2023/11/29 08:53:26;;;;;;;3.92;2.90;;;0.90;99.90;;;;;;5050313;28;20195;-73
2023/11/29 08:55:52;;;;;;;3.22;2.83;;;0.90;99.90;;;;;;5047588;28;20205;-73
2023/11/29 08:58:19;;;;;;;4.50;3.47;;;1.00;99.90;;;;;;5047857;28;20270;-73
2023/11/29 09:00:46;;;;;;;4.00;2.90;;;1.00;99.90;;;;;;5047849;28;20226;-73
2023/11/29 09:03:13;;;;;;;3.08;2.53;;;0.90;99.90;;;;;;5047519;28;20197;-73
2023/11/29 09:05:41;;;;;;;4.50;2.28;;;0.80;99.90;;;;;;5047188;28;20200;-73
2023/11/29 09:08:08;;;;;;;5.85;3.45;;;0.80;99.90;;;;;;5037462;28;20200;-73
2023/11/29 09:10:37;;;;;;;2.88;2.58;;;1.00;99.90;;;;;;5032572;28;20197;-74
2023/11/29 09:13:05;;;;;;;4.78;3.47;;;1.00;99.90;;;;;;5045476;28;20282;-74
2023/11/29 09:15:32;;;;;;;3.72;3.42;;;1.10;99.90;;;;;;5037954;28;20292;-73
2023/11/29 09:17:59;;;;;;;3.50;3.03;;;1.10;99.90;;;;;;5041178;28;20240;-74
2023/11/29 09:20:26;;;;;;;3.80;3.50;;;1.10;99.90;;;;;;5044808;28;20224;-74
2023/11/29 09:22:55;;;;;;;2.88;2.67;;;1.20;99.90;;;;;;5037602;28;20212;-74
2023/11/29 09:25:22;;;;;;;3.92;2.88;;;1.20;99.90;;;;;;5044941;28;20283;-74
2023/11/29 09:27:49;;;;;;;3.85;2.35;;;1.00;99.90;;;;;;5045278;28;20200;-73
2023/11/29 09:30:17;;;;;;;3.17;2.88;;;1.20;99.90;;;;;;5045967;28;20220;-74
2023/11/29 09:32:43;;;;;;;1.85;1.63;;;1.20;99.90;;;;;;5045627;28;20204;-74
2023/11/29 09:35:10;;;;;;;2.97;2.67;;;1.20;99.90;;;;;;5045097;28;20200;-74
2023/11/29 09:37:37;;;;;;;5.07;2.20;;;1.20;99.90;;;;;;5046696;28;20288;-74
2023/11/29 09:40:08;;;;;;;3.17;2.88;;;1.30;99.90;;;;;;5044520;28;20232;-74
2023/11/29 09:42:37;;;;;;;3.70;3.40;;;1.30;99.90;;;;;;5029370;28;20229;-74
2023/11/29 09:45:10;;;;;;;4.78;3.15;;;1.50;99.90;;;;;;5040263;28;20212;-74
2023/11/29 09:47:38;;;;;;;3.25;2.97;;;1.50;99.90;;;;;;5042942;28;20227;-74
2023/11/29 09:50:06;;;;;;;2.97;2.75;;;1.50;99.90;;;;;;5035075;28;20231;-74
2023/11/29 09:52:34;;;;;;;4.57;3.38;;;1.40;99.90;;;;;;5042258;28;20569;-74
2023/11/29 09:55:00;;;;;;;3.65;2.78;;;1.40;99.90;;;;;;5045274;28;20227;-74
2023/11/29 09:57:28;;;;;;;6.55;2.85;;;1.40;99.90;;;;;;5039084;28;20208;-73
2023/11/29 09:59:55;;;;;;;3.42;2.58;;;1.40;99.90;;;;;;5048126;28;20655;-75
2023/11/29 10:02:23;;;;;;;3.65;3.35;;;1.40;99.90;;;;;;5041634;28;20214;-75
2023/11/29 10:04:50;;;;;;;4.60;3.38;;;1.40;99.90;;;;;;5043129;28;20207;-74
2023/11/29 10:07:16;;;;;;;2.83;2.38;;;1.40;99.90;;;;;;5041870;28;20286;-74
2023/11/29 10:09:44;;;;;;;3.22;2.20;;;1.50;99.90;;;;;;5044879;28;20204;-74
2023/11/29 10:12:12;;;;;;;4.65;3.53;;;1.60;99.90;;;;;;5051683;28;20223;-77
2023/11/29 10:14:41;;;;;;;2.78;2.58;;;1.50;99.90;;;;;;5049359;28;20200;-73
2023/11/29 10:17:12;;;;;;;2.45;2.33;;;1.60;99.90;;;;;;5049587;28;20196;-72
2023/11/29 10:19:39;;;;;;;3.70;2.72;;;1.60;99.90;;;;;;5049438;28;20225;-73
2023/11/29 10:22:06;;;;;;;2.85;2.30;;;1.60;99.90;;;;;;5051647;28;20206;-73
2023/11/29 10:24:33;;;;;;;4.53;3.33;;;1.60;99.90;;;;;;5054003;28;20207;-73
2023/11/29 10:27:00;;;;;;;3.30;3.00;;;1.30;99.90;;;;;;5050948;28;20283;-72
2023/11/29 10:29:27;;;;;;;3.08;2.42;;;1.50;99.90;;;;;;5048854;28;20206;-72
2023/11/29 10:31:57;;;;;;;2.78;2.45;;;1.70;99.90;;;;;;5053321;28;20208;-73
2023/11/29 10:34:24;;;;;;;3.22;2.65;;;1.80;99.90;;;;;;5054735;28;20202;-73
2023/11/29 10:36:52;;;;;;;4.70;2.15;;;1.90;99.90;;;;;;5051825;28;20199;-73
2023/11/29 10:39:23;;;;;;;1.98;1.80;;;2.00;99.90;;;;;;5038564;28;20872;-73
2023/11/29 10:41:53;;;;;;;2.67;1.85;;;2.10;99.90;;;;;;5041006;28;20700;-73
2023/11/29 10:44:22;;;;;;;2.38;1.60;;;2.20;99.90;;;;;;5040222;28;20204;-73
2023/11/29 10:46:53;;;;;;;2.03;1.63;;;2.10;99.90;;;;;;5039617;28;20573;-73
2023/11/29 10:49:30;;;;;;;3.13;2.83;;;2.40;99.90;;;;;;5041597;28;20207;-73
2023/11/29 10:51:57;;;;;;;3.95;1.80;;;2.40;99.90;;;;;;5045039;28;20202;-75
2023/11/29 10:54:26;;;;;;;3.63;2.58;;;2.50;99.90;;;;;;5044094;28;20206;-75
2023/11/29 10:56:54;;;;;;;3.88;3.58;;;2.60;99.80;;;;;;5041483;28;20210;-76
2023/11/29 10:59:25;;;;;;;3.38;2.30;;;2.30;99.30;;;;;;5038996;28;20200;-75
2023/11/29 11:01:56;;;;;;;2.55;2.33;;;2.50;99.40;;;;;;5040879;28;20207;-76
2023/11/29 11:04:30;;;;;;;2.10;1.98;;;2.50;99.30;;;;;;5038782;28;20752;-76
2023/11/29 11:06:59;;;;;;;2.80;1.92;;;2.20;98.70;;;;;;5044636;28;20196;-76
2023/11/29 11:09:36;;;;;;;3.35;2.75;;;2.30;99.90;;;;;;5034523;28;20291;-76
2023/11/29 11:12:04;;;;;;;2.97;1.77;;;2.40;99.80;;;;;;5038470;28;20200;-75
2023/11/29 11:14:41;;;;;;;5.15;2.05;;;2.40;99.10;;;;;;5042415;28;20204;-73
2023/11/29 11:17:09;;;;;;;3.33;1.90;;;2.50;99.60;;;;;;5047619;28;20284;-73
2023/11/29 11:19:39;;;;;;;2.50;2.28;;;2.30;99.20;;;;;;5041308;28;20269;-73
2023/11/29 11:22:10;;;;;;;4.72;2.22;;;2.20;98.80;;;;;;5048482;28;20528;-74
2023/11/29 11:24:55;;;;;;;1.50;1.35;;;2.20;99.40;;;;;;5048393;28;20673;-73
2023/11/29 11:27:25;;;;;;;1.48;1.35;;;2.50;99.40;;;;;;5048793;28;20199;-73
2023/11/29 11:29:52;;;;;;;2.50;2.20;;;2.50;99.00;;;;;;5043050;28;20666;-74
2023/11/29 11:32:34;;;;;;;4.25;2.08;;;2.70;98.90;;;;;;5046001;28;20215;-76
2023/11/29 11:35:32;;;;;;;2.63;2.30;;;2.70;98.50;;;;;;5037564;28;20214;-72
2023/11/29 11:38:00;;;;;;;3.85;3.00;;;2.60;98.90;;;;;;5042560;28;21079;-74
2023/11/29 11:40:29;;;;;;;2.47;2.28;;;2.70;98.50;;;;;;5047660;28;20281;-75
2023/11/29 11:42:57;;;;;;;1.73;1.50;;;2.70;98.40;;;;;;5044743;28;20296;-75
2023/11/29 11:45:29;;;;;;;2.50;1.80;;;2.70;99.20;;;;;;5044688;28;20325;-75
2023/11/29 11:47:56;;;;;;;3.47;1.70;;;2.70;99.00;;;;;;5045928;28;20302;-74
2023/11/29 11:50:24;;;;;;;3.50;2.80;;;2.70;98.60;;;;;;5041930;28;20928;-73
2023/11/29 11:52:53;;;;;;;1.77;1.33;;;2.60;98.60;;;;;;5044183;28;20596;-74
2023/11/29 11:55:20;;;;;;;2.20;2.00;;;2.70;98.10;;;;;;5044299;28;20208;-73
2023/11/29 11:57:48;;;;;;;2.28;1.60;;;2.70;98.00;;;;;;5045074;28;20201;-73
2023/11/29 12:00:17;;;;;;;2.80;2.55;;;2.70;98.20;;;;;;5046884;28;20217;-73
2023/11/29 12:02:44;;;;;;;2.03;1.88;;;2.80;98.10;;;;;;5046942;28;20207;-73
2023/11/29 12:05:11;;;;;;;1.67;1.55;;;2.80;98.00;;;;;;5038521;28;20216;-73
2023/11/29 12:07:40;;;;;;;2.45;2.03;;;2.80;97.70;;;;;;5045722;28;20234;-73
2023/11/29 12:10:12;;;;;;;3.35;3.15;;;2.80;97.60;;;;;;5039187;28;20205;-73
2023/11/29 12:12:39;;;;;;;2.17;2.03;;;2.80;97.80;;;;;;5047208;28;20213;-73
2023/11/29 12:15:07;;;;;;;1.85;1.70;;;2.70;98.40;;;;;;5033829;28;20540;-73
2023/11/29 12:17:35;;;;;;;3.05;2.05;;;2.70;98.40;;;;;;5042695;28;20233;-73
2023/11/29 12:20:04;;;;;;;1.50;1.25;;;2.70;98.20;;;;;;5038603;28;20221;-73
2023/11/29 12:22:32;;;;;;;2.20;1.90;;;2.60;98.50;;;;;;5035625;28;20226;-73
2023/11/29 12:24:58;;;;;;;1.90;1.35;;;2.60;98.10;;;;;;5032695;28;20655;-72
2023/11/29 12:27:28;;;;;;;1.92;1.83;;;2.60;97.70;;;;;;5047591;28;20212;-71
2023/11/29 12:29:57;;;;;;;1.90;1.60;;;2.60;97.60;;;;;;5041609;28;20200;-72
2023/11/29 12:32:26;;;;;;;3.22;2.75;;;2.40;98.00;;;;;;5043549;28;20666;-70
2023/11/29 12:34:54;;;;;;;2.47;1.95;;;2.60;98.20;;;;;;5037730;28;20205;-75
2023/11/29 12:37:20;;;;;;;2.38;2.08;;;2.50;98.40;;;;;;5041654;28;20673;-75
2023/11/29 12:39:48;;;;;;;2.65;1.75;;;2.60;98.90;;;;;;5045301;28;20246;-76
2023/11/29 12:42:15;;;;;;;4.35;2.00;;;2.60;98.40;;;;;;5043957;28;20196;-75
2023/11/29 12:44:43;;;;;;;4.80;2.13;;;2.70;98.50;;;;;;5046730;28;20212;-71
2023/11/29 12:47:10;;;;;;;2.28;2.10;;;2.70;98.40;;;;;;5042585;28;20218;-71
2023/11/29 12:49:37;;;;;;;3.47;1.80;;;2.70;98.40;;;;;;5041884;28;20602;-72
2023/11/29 12:52:05;;;;;;;1.27;1.27;;;2.60;98.20;;;;;;5046731;28;20289;-72
2023/11/29 12:54:31;;;;;;;3.03;2.40;;;2.50;98.00;;;;;;5049743;28;20205;-73
2023/11/29 12:56:58;;;;;;;2.47;2.33;;;2.60;97.80;;;;;;5037654;28;20197;-73
2023/11/29 12:59:25;;;;;;;2.35;2.08;;;2.50;97.70;;;;;;5041882;28;20209;-72
2023/11/29 13:01:53;;;;;;;4.18;3.10;;;2.40;97.90;;;;;;5047095;28;20236;-72
2023/11/29 13:04:22;;;;;;;2.83;2.00;;;2.30;98.20;;;;;;5042199;28;20202;-73
2023/11/29 13:06:49;;;;;;;1.77;1.02;;;2.40;98.00;;;;;;5044698;28;20306;-72
2023/11/29 13:09:16;;;;;;;1.70;1.60;;;2.30;98.10;;;;;;5046044;28;20226;-73
2023/11/29 13:11:43;;;;;;;4.82;1.80;;;2.30;97.70;;;;;;5044975;28;20204;-73
2023/11/29 13:14:09;;;;;;;1.63;1.27;;;2.30;98.00;;;;;;5035560;28;20544;-73
2023/11/29 13:16:36;;;;;;;1.67;1.58;;;2.20;98.10;;;;;;5035503;28;20203;-72
2023/11/29 13:19:04;;;;;;;2.78;1.88;;;2.30;98.70;;;;;;5033805;28;20283;-73
2023/11/29 13:21:32;;;;;;;4.07;2.40;;;2.30;99.00;;;;;;5041589;28;20230;-73
2023/11/29 13:23:59;;;;;;;3.08;1.80;;;2.30;98.60;;;;;;5034873;28;20278;-72
2023/11/29 13:26:26;;;;;;;1.70;1.60;;;2.30;98.20;;;;;;5046026;28;21004;-73
2023/11/29 13:28:53;;;;;;;4.55;2.40;;;2.30;98.30;;;;;;5042964;28;20211;-73
2023/11/29 13:31:20;;;;;;;2.78;2.13;;;2.20;98.40;;;;;;5045554;28;20209;-73
2023/11/29 13:33:47;;;;;;;3.47;1.90;;;2.10;98.70;;;;;;5037962;28;20201;-73
2023/11/29 13:36:15;;;;;;;3.08;2.17;;;2.10;98.90;;;;;;5042088;28;20367;-73
2023/11/29 13:38:43;;;;;;;1.80;1.40;;;;;;;;;;5042396;28;20196;-73
2023/11/29 13:41:10;;;;;;;2.30;2.08;;;2.60;99.90;;;;;;5039093;28;20236;-73
2023/11/29 13:43:37;;;;;;;3.50;2.60;;;1.70;99.90;;;;;;5041242;28;20197;-73
2023/11/29 13:46:04;;;;;;;2.33;2.13;;;1.90;99.90;;;;;;5045291;28;20209;-73
2023/11/29 13:48:31;;;;;;;2.38;2.17;;;2.10;99.70;;;;;;5043494;28;20298;-73
2023/11/29 13:50:58;;;;;;;1.55;1.45;;;2.90;99.90;;;;;;5041438;28;20292;-73
2023/11/29 13:53:28;;;;;;;2.78;1.98;;;2.00;99.90;;;;;;5043582;28;20197;-75
2023/11/29 13:55:55;;;;;;;6.85;3.05;;;2.10;99.80;;;;;;5041195;28;20646;-73
2023/11/29 13:58:21;;;;;;;3.00;2.70;;;2.10;99.90;;;;;;5037201;28;20900;-74
2023/11/29 14:00:48;;;;;;;3.28;2.92;;;2.10;99.90;;;;;;5038792;28;20282;-74
2023/11/29 14:03:15;;;;;;;1.90;1.80;;;2.10;99.90;;;;;;5045353;28;20287;-74
2023/11/29 14:05:45;;;;;;;2.80;1.52;;;2.00;99.90;;;;;;5044092;28;20192;-74
2023/11/29 14:08:13;;;;;;;2.05;1.77;;;2.10;99.90;;;;;;5044075;28;20209;-74
2023/11/29 14:10:41;;;;;;;2.47;2.05;;;2.20;99.60;;;;;;5034006;28;20280;-74
2023/11/29 14:13:08;;;;;;;3.30;2.95;;;2.30;99.60;;;;;;5040925;28;20200;-74
2023/11/29 14:15:35;;;;;;;3.75;2.08;;;2.20;99.90;;;;;;5036522;28;20197;-74
2023/11/29 14:18:02;;;;;;;2.90;2.40;;;2.30;99.90;;;;;;5038428;28;20205;-73
2023/11/29 14:20:29;;;;;;;2.75;2.47;;;2.30;99.90;;;;;;5042624;28;20309;-73
2023/11/29 14:22:57;;;;;;;2.47;2.28;;;2.30;99.90;;;;;;5037637;28;20202;-73
2023/11/29 14:25:26;;;;;;;2.80;2.20;;;2.30;99.90;;;;;;5042231;28;20206;-73
2023/11/29 14:27:54;;;;;;;2.35;1.90;;;2.30;99.90;;;;;;5042536;28;20205;-75
2023/11/29 14:30:21;;;;;;;8.43;2.45;;;2.30;99.90;;;;;;5042657;28;20198;-73
2023/11/29 14:32:48;;;;;;;2.95;2.38;;;2.30;99.90;;;;;;5040307;28;20209;-74
2023/11/29 14:35:15;;;;;;;2.33;2.10;;;2.40;99.90;;;;;;5043556;28;20314;-73
2023/11/29 14:37:42;;;;;;;4.18;2.63;;;2.30;99.90;;;;;;5039840;28;20288;-73
2023/11/29 14:40:10;;;;;;;3.35;2.08;;;2.40;99.90;;;;;;5045119;28;20206;-73
2023/11/29 14:42:37;;;;;;;2.63;2.33;;;2.50;99.90;;;;;;5039892;28;20229;-72
2023/11/29 14:45:06;;;;;;;3.08;2.67;;;2.50;99.90;;;;;;5043773;28;20290;-73
2023/11/29 14:47:33;;;;;;;2.70;2.25;;;3.30;99.90;;;;;;5036288;28;20221;-73
2023/11/29 14:50:00;;;;;;;2.35;2.08;;;2.10;99.90;;;;;;5037652;28;20741;-73
2023/11/29 14:52:27;;;;;;;3.70;2.65;;;2.40;99.90;;;;;;5043876;28;20660;-73
2023/11/29 14:54:54;;;;;;;2.78;1.98;;;2.40;99.90;;;;;;5044579;28;20203;-73
2023/11/29 14:57:23;;;;;;;6.32;3.22;;;;;;;;;;5040720;28;20632;-74
2023/11/29 14:59:50;;;;;;;2.50;2.30;;;2.30;99.90;;;;;;5040177;28;20214;-72
2023/11/29 15:02:19;;;;;;;4.70;3.60;;;2.50;99.90;;;;;;5038279;28;20639;-73
2023/11/29 15:04:46;;;;;;;4.35;3.50;;;2.40;99.90;;;;;;5036036;28;20701;-73
2023/11/29 15:07:13;;;;;;;2.88;2.47;;;2.50;99.90;;;;;;5041296;28;20207;-73
2023/11/29 15:09:42;;;;;;;3.50;2.28;;;2.40;99.90;;;;;;5035852;28;20204;-73
2023/11/29 15:12:09;;;;;;;4.43;3.35;;;2.40;99.90;;;;;;5036166;28;20223;-73
2023/11/29 15:14:36;;;;;;;2.88;2.30;;;2.40;99.90;;;;;;5033689;28;20286;-71
2023/11/29 15:17:02;;;;;;;3.63;2.17;;;2.40;99.90;;;;;;5042695;28;20206;-72
2023/11/29 15:19:30;;;;;;;4.55;2.70;;;2.30;99.90;;;;;;5037412;28;21096;-74